Time;durP1;ratioP1;P1;durP2;ratioP2;P2;SDS_P1;SDS_P2;PMS_P1;PMS_P2;Temp;Humidity;BMP_temperature;BMP_pressure;BME280_temperature;BME280_humidity;BME280_pressure;Samples;Min_cycle;Max_cycle;Signal;HPM_P1;HPM_P2
2022/03/08 00:00:42;;;;;;;11.02;6.47;;;;;;;-0.11;60.84;102169.44;5022101;28;20072;-71
2022/03/08 00:03:07;;;;;;;14.73;6.90;;;;;;;-0.01;60.45;102168.22;5022442;28;20372;-71
2022/03/08 00:05:33;;;;;;;12.63;6.47;;;;;;;0.04;60.54;102163.81;5023063;28;20061;-71
2022/03/08 00:07:59;;;;;;;14.20;7.65;;;;;;;-0.02;60.03;102161.44;5018759;28;20106;-71
2022/03/08 00:10:26;;;;;;;12.43;6.75;;;;;;;0.09;60.08;102161.91;5021612;28;20037;-70
2022/03/08 00:12:53;;;;;;;14.18;7.28;;;;;;;0.13;59.43;102162.63;5021519;28;20041;-72
2022/03/08 00:15:21;;;;;;;12.48;6.00;;;;;;;0.12;59.71;102159.25;5020418;28;20692;-70
2022/03/08 00:17:47;;;;;;;10.38;6.03;;;;;;;0.06;60.33;102156.06;5024745;28;20603;-70
2022/03/08 00:20:14;;;;;;;13.10;7.15;;;;;;;0.05;59.99;102155.25;5020916;28;20030;-72
2022/03/08 00:22:40;;;;;;;11.23;6.13;;;;;;;0.09;60.40;102151.69;5045209;28;20524;-70
2022/03/08 00:25:08;;;;;;;10.52;5.93;;;;;;;0.12;60.01;102153.31;5021641;28;20057;-71
2022/03/08 00:27:34;;;;;;;12.75;6.45;;;;;;;-0.01;60.18;102146.09;5025961;28;20029;-71
2022/03/08 00:30:04;;;;;;;13.80;6.60;;;;;;;-0.07;60.52;102148.03;5024047;28;20025;-71
2022/03/08 00:32:30;;;;;;;14.43;6.38;;;;;;;0.01;60.33;102147.75;5037395;28;20628;-71
2022/03/08 00:34:55;;;;;;;12.40;6.80;;;;;;;-0.06;60.87;102142.91;5025094;28;20025;-70
2022/03/08 00:37:21;;;;;;;11.68;7.38;;;;;;;0.04;60.38;102140.84;5022932;28;20576;-71
2022/03/08 00:39:47;;;;;;;14.55;6.60;;;;;;;-0.01;60.69;102140.16;5026450;28;20025;-70
2022/03/08 00:42:12;;;;;;;11.95;7.03;;;;;;;-0.02;60.78;102138.50;5023381;28;20033;-70
2022/03/08 00:44:39;;;;;;;15.25;6.75;;;;;;;-0.04;60.31;102140.25;5034173;28;20034;-70
2022/03/08 00:47:05;;;;;;;13.85;6.50;;;;;;;0.05;60.71;102131.47;5023480;28;20033;-71
2022/03/08 00:49:31;;;;;;;14.38;6.40;;;;;;;0.06;60.09;102131.41;5020289;28;20381;-71
2022/03/08 00:51:56;;;;;;;12.43;5.75;;;;;;;-0.08;61.11;102143.81;5018992;28;20030;-70
2022/03/08 00:54:22;;;;;;;12.88;6.25;;;;;;;-0.10;61.21;102131.13;5023531;28;20337;-72
2022/03/08 00:56:47;;;;;;;13.77;6.68;;;;;;;-0.14;61.47;102141.50;5027380;28;20032;-71
2022/03/08 00:59:13;;;;;;;11.95;6.80;;;;;;;-0.23;61.78;102140.94;5018518;28;20064;-70
2022/03/08 01:01:39;;;;;;;12.27;7.03;;;;;;;-0.25;62.34;102134.19;4993616;28;20041;-72
2022/03/08 01:04:04;;;;;;;13.63;6.70;;;;;;;-0.29;62.69;102138.56;5023204;28;20025;-70
2022/03/08 01:06:30;;;;;;;11.32;6.75;;;;;;;-0.38;63.21;102138.06;5018011;28;20095;-71
2022/03/08 01:08:56;;;;;;;14.68;7.05;;;;;;;-0.47;62.94;102132.41;5027123;28;20071;-70
2022/03/08 01:11:24;;;;;;;12.73;6.70;;;;;;;-0.59;63.46;102131.09;5009550;28;20737;-70
2022/03/08 01:13:51;;;;;;;10.93;6.88;;;;;;;-0.68;63.74;102130.56;5021115;28;20029;-70
2022/03/08 01:16:16;;;;;;;11.70;6.63;;;;;;;-0.76;64.13;102130.81;5023478;28;20083;-71
2022/03/08 01:18:42;;;;;;;10.43;6.55;;;;;;;-0.82;64.23;102134.38;5025750;28;20037;-71
2022/03/08 01:21:07;;;;;;;17.25;8.00;;;;;;;-0.84;64.67;102136.16;4998074;28;20095;-71
2022/03/08 01:23:33;;;;;;;11.60;6.47;;;;;;;-0.87;65.17;102133.69;5014207;28;20041;-71
2022/03/08 01:25:58;;;;;;;14.30;6.78;;;;;;;-0.88;64.65;102133.78;5020855;28;20025;-70
2022/03/08 01:28:24;;;;;;;13.40;7.00;;;;;;;-0.86;64.70;102132.00;5026674;28;20048;-70
2022/03/08 01:30:50;;;;;;;11.95;7.07;;;;;;;-0.79;64.37;102120.75;5024901;28;20030;-70
2022/03/08 01:33:15;;;;;;;12.30;6.70;;;;;;;-0.81;64.57;102125.88;5012960;28;20030;-72
2022/03/08 01:35:43;;;;;;;14.07;7.32;;;;;;;-0.76;64.70;102127.44;5027965;28;20029;-70
2022/03/08 01:38:09;;;;;;;13.95;6.45;;;;;;;-0.80;64.40;102116.53;5027848;28;20029;-70
2022/03/08 01:40:34;;;;;;;11.38;6.63;;;;;;;-0.76;64.56;102114.69;5026704;28;20140;-72
2022/03/08 01:43:01;;;;;;;14.57;7.43;;;;;;;-0.89;65.18;102115.09;5028987;28;20034;-70
2022/03/08 01:45:26;;;;;;;13.27;6.60;;;;;;;-0.97;65.44;102114.50;5028205;28;20037;-70
2022/03/08 01:47:52;;;;;;;13.25;6.80;;;;;;;-1.04;65.33;102118.13;5027078;28;20040;-74
2022/03/08 01:50:18;;;;;;;15.95;7.03;;;;;;;-1.05;65.50;102112.22;5024523;28;20377;-72
2022/03/08 01:52:44;;;;;;;9.77;6.00;;;;;;;-1.04;65.27;102106.22;5025666;28;20057;-72
2022/03/08 01:55:12;;;;;;;11.45;7.15;;;;;;;-1.04;65.49;102107.94;5024716;28;20611;-72
2022/03/08 01:57:37;;;;;;;13.38;7.10;;;;;;;-0.95;65.33;102105.09;5025118;28;20049;-70
2022/03/08 02:00:06;;;;;;;10.13;6.45;;;;;;;-0.88;64.51;102095.56;5026016;28;20033;-70
2022/03/08 02:02:39;;;;;;;12.20;6.97;;;;;;;-0.88;64.04;102098.13;5029812;28;20099;-70
2022/03/08 02:05:05;;;;;;;12.63;6.78;;;;;;;-0.90;64.16;102093.06;5027537;28;20674;-70
2022/03/08 02:07:30;;;;;;;13.02;6.95;;;;;;;-0.97;64.77;102086.50;5028187;28;20034;-71
2022/03/08 02:09:56;;;;;;;16.30;6.80;;;;;;;-0.94;64.52;102088.97;5027910;28;20033;-71
2022/03/08 02:12:21;;;;;;;13.80;7.47;;;;;;;-0.98;64.78;102083.13;5026180;28;20061;-70
2022/03/08 02:14:47;;;;;;;13.73;6.82;;;;;;;-1.06;65.43;102071.53;5024572;28;20623;-70
2022/03/08 02:17:12;;;;;;;12.18;6.95;;;;;;;-1.14;66.12;102079.41;5031368;28;20044;-71
2022/03/08 02:19:38;;;;;;;12.18;6.93;;;;;;;-1.19;66.24;102073.63;5024828;28;20037;-71
2022/03/08 02:22:04;;;;;;;15.45;6.97;;;;;;;-1.24;66.54;102078.88;5026855;28;20030;-71
2022/03/08 02:24:29;;;;;;;12.82;7.75;;;;;;;-1.29;66.78;102065.44;5028232;28;20025;-70
2022/03/08 02:26:54;;;;;;;13.82;7.03;;;;;;;-1.35;66.97;102069.91;5025240;28;20029;-72
2022/03/08 02:29:20;;;;;;;14.25;7.55;;;;;;;-1.40;66.87;102060.69;5014863;23;20060;-72
2022/03/08 02:31:47;;;;;;;14.85;7.15;;;;;;;-1.41;67.23;102060.75;5005160;28;20033;-70
2022/03/08 02:34:14;;;;;;;12.55;6.95;;;;;;;-1.39;66.85;102054.72;5022459;28;20458;-71
2022/03/08 02:36:41;;;;;;;11.90;6.93;;;;;;;-1.31;66.69;102048.56;5006130;28;20362;-70
2022/03/08 02:39:07;;;;;;;10.43;6.47;;;;;;;-1.17;65.48;102048.94;5023527;28;20043;-73
2022/03/08 02:41:33;;;;;;;13.68;7.40;;;;;;;-1.04;65.34;102047.66;5007738;28;20037;-71
2022/03/08 02:43:58;;;;;;;15.52;8.20;;;;;;;-0.96;65.07;102046.59;4987527;28;20064;-70
2022/03/08 02:46:24;;;;;;;22.85;8.32;;;;;;;-1.01;64.65;102037.38;4990465;28;20030;-71
2022/03/08 02:48:49;;;;;;;15.63;8.05;;;;;;;-1.09;64.91;102030.88;4989498;28;20030;-72
2022/03/08 02:51:15;;;;;;;16.35;7.13;;;;;;;-1.02;65.05;102043.38;5004958;28;20045;-70
2022/03/08 02:53:40;;;;;;;14.25;7.13;;;;;;;-0.87;64.10;102036.09;4977321;28;20045;-70
2022/03/08 02:56:06;;;;;;;15.45;7.55;;;;;;;-0.88;64.27;102037.00;4990988;28;20092;-71
2022/03/08 02:58:31;;;;;;;16.45;7.85;;;;;;;-0.99;64.64;102040.72;5007086;28;20396;-72
2022/03/08 03:00:56;;;;;;;14.45;7.75;;;;;;;-0.89;64.45;102038.69;4991613;28;20033;-70
2022/03/08 03:03:22;;;;;;;14.98;8.32;;;;;;;-0.87;64.21;102036.91;5007257;28;20041;-70
2022/03/08 03:05:47;;;;;;;23.33;7.90;;;;;;;-0.80;63.66;102032.47;4988907;28;20037;-72
2022/03/08 03:08:13;;;;;;;13.73;7.50;;;;;;;-0.77;63.26;102040.00;5005509;28;20049;-70
2022/03/08 03:10:39;;;;;;;14.25;7.38;;;;;;;-0.82;63.35;102035.06;5005821;28;20029;-70
2022/03/08 03:13:05;;;;;;;11.52;6.88;;;;;;;-0.88;63.64;102032.72;4970434;28;20030;-70
2022/03/08 03:15:30;;;;;;;11.05;7.05;;;;;;;-0.75;63.70;102032.28;4992856;28;20061;-71
2022/03/08 03:17:57;;;;;;;11.90;7.35;;;;;;;-0.79;63.66;102034.13;4988091;28;20089;-71
2022/03/08 03:20:23;;;;;;;10.48;6.82;;;;;;;-0.68;63.51;102033.75;5004630;28;20034;-71
2022/03/08 03:22:49;;;;;;;13.00;7.15;;;;;;;-0.68;63.41;102034.59;4986559;28;20088;-70
2022/03/08 03:25:16;;;;;;;10.02;6.80;;;;;;;-0.82;64.41;102035.06;5007670;28;20033;-70
2022/03/08 03:27:43;;;;;;;15.60;6.93;;;;;;;-0.99;64.93;102034.78;4975846;28;20117;-72
2022/03/08 03:30:13;;;;;;;24.63;7.38;;;;;;;-1.02;65.06;102033.19;4983472;28;20460;-70
2022/03/08 03:32:40;;;;;;;16.60;7.30;;;;;;;-1.02;65.38;102029.78;5008539;28;20408;-72
2022/03/08 03:35:06;;;;;;;11.88;7.07;;;;;;;-0.96;64.92;102029.63;5007384;28;20060;-70
2022/03/08 03:37:32;;;;;;;12.77;7.57;;;;;;;-0.98;64.79;102026.25;4987966;28;20116;-72
2022/03/08 03:39:58;;;;;;;14.13;7.28;;;;;;;-0.94;64.76;102024.44;5005818;28;20041;-71
2022/03/08 03:42:23;;;;;;;13.18;7.05;;;;;;;-0.93;64.66;102024.41;4992221;28;20038;-71
2022/03/08 03:44:49;;;;;;;12.45;6.72;;;;;;;-0.91;64.82;102012.44;4991625;28;20040;-71
2022/03/08 03:47:14;;;;;;;14.30;7.57;;;;;;;-0.84;64.02;102013.91;5003894;28;20038;-71
2022/03/08 03:49:40;;;;;;;11.32;6.90;;;;;;;-0.76;63.62;102012.81;5003513;28;20054;-74
2022/03/08 03:52:06;;;;;;;14.15;7.78;;;;;;;-0.91;64.91;102016.72;5004655;28;20037;-70
2022/03/08 03:54:31;;;;;;;14.60;6.95;;;;;;;-0.99;65.07;102014.41;4973471;28;20508;-70
2022/03/08 03:56:57;;;;;;;13.40;7.20;;;;;;;-0.96;65.11;102021.13;4984333;28;20044;-70
2022/03/08 03:59:22;;;;;;;13.77;6.88;;;;;;;-0.99;65.41;102012.69;5011495;28;20057;-73
2022/03/08 04:01:48;;;;;;;12.32;7.50;;;;;;;-1.04;66.08;102009.47;5012795;28;20033;-70
2022/03/08 04:04:13;;;;;;;16.20;7.85;;;;;;;-1.04;65.56;102009.47;5001174;28;20050;-70
2022/03/08 04:06:39;;;;;;;12.73;7.32;;;;;;;-1.14;66.55;102003.03;5010254;28;20036;-70
2022/03/08 04:09:06;;;;;;;11.63;7.22;;;;;;;-1.14;66.87;101997.13;5007346;28;20044;-72
2022/03/08 04:11:32;;;;;;;12.77;7.40;;;;;;;-1.05;66.08;101997.63;4991399;28;20030;-70
2022/03/08 04:13:58;;;;;;;12.52;7.32;;;;;;;-1.08;66.36;102000.28;4984264;28;20069;-70
2022/03/08 04:16:23;;;;;;;15.23;7.47;;;;;;;-1.04;66.57;101996.72;4995336;28;20034;-70
2022/03/08 04:18:49;;;;;;;10.35;6.95;;;;;;;-1.01;65.94;101995.81;4991292;28;20500;-72
2022/03/08 04:21:14;;;;;;;15.98;7.63;;;;;;;-0.98;65.83;101995.69;4992596;28;20038;-71
2022/03/08 04:23:40;;;;;;;15.25;7.47;;;;;;;-0.89;65.28;101999.66;4989863;28;20049;-70
2022/03/08 04:26:05;;;;;;;12.82;7.15;;;;;;;-0.86;64.68;101989.38;5004121;28;20126;-71
2022/03/08 04:28:30;;;;;;;18.80;8.32;;;;;;;-0.93;65.46;101991.28;4970079;28;20037;-72
2022/03/08 04:30:56;;;;;;;19.05;8.30;;;;;;;-0.94;65.01;101984.53;4982790;28;20026;-70
2022/03/08 04:33:21;;;;;;;13.30;7.55;;;;;;;-0.75;64.83;101983.88;5002561;28;20444;-71
2022/03/08 04:35:47;;;;;;;16.20;8.15;;;;;;;-0.85;64.52;101985.94;4988007;28;20022;-72
2022/03/08 04:38:13;;;;;;;18.42;8.30;;;;;;;-0.68;64.39;101982.78;4972417;28;20041;-70
2022/03/08 04:40:38;;;;;;;12.75;7.03;;;;;;;-0.81;64.52;101977.28;5007619;28;20225;-71
2022/03/08 04:43:04;;;;;;;16.05;7.60;;;;;;;-0.76;64.30;101980.50;4992581;28;20040;-71
2022/03/08 04:45:30;;;;;;;14.27;7.75;;;;;;;-0.71;64.17;101980.38;4990510;28;20037;-71
2022/03/08 04:47:55;;;;;;;15.57;8.30;;;;;;;-0.77;64.49;101981.41;5005260;28;20038;-73
2022/03/08 04:50:21;;;;;;;14.73;8.13;;;;;;;-0.74;64.69;101990.66;5002636;28;20038;-71
2022/03/08 04:52:48;;;;;;;13.23;7.40;;;;;;;-0.90;65.43;101990.38;5006395;28;20033;-71
2022/03/08 04:55:15;;;;;;;12.40;7.82;;;;;;;-0.75;64.51;101981.34;5004164;28;20037;-71
2022/03/08 04:57:41;;;;;;;16.08;8.07;;;;;;;-0.97;65.52;101984.63;5006565;28;20040;-71
2022/03/08 05:00:08;;;;;;;17.30;8.32;;;;;;;-0.94;65.39;101983.69;4987988;28;20576;-71
2022/03/08 05:02:34;;;;;;;16.92;7.72;;;;;;;-1.05;65.93;102001.91;5009001;28;20435;-71
2022/03/08 05:05:00;;;;;;;15.27;8.55;;;;;;;-1.16;66.20;101992.06;4988011;28;20029;-71
2022/03/08 05:07:25;;;;;;;18.52;8.40;;;;;;;-1.23;67.23;101993.97;4992060;28;20388;-71
2022/03/08 05:09:51;;;;;;;14.27;8.65;;;;;;;-1.26;67.46;101986.47;4987505;28;20038;-73
2022/03/08 05:12:16;;;;;;;16.27;7.57;;;;;;;-1.31;67.81;101997.69;4990598;28;20022;-71
2022/03/08 05:14:42;;;;;;;13.00;7.68;;;;;;;-1.40;68.08;101999.63;5002031;28;20524;-74
2022/03/08 05:17:07;;;;;;;14.85;8.15;;;;;;;-1.42;68.29;101987.84;5003168;28;20045;-71
2022/03/08 05:19:33;;;;;;;16.60;8.43;;;;;;;-1.38;67.74;101985.13;5008259;28;20030;-71
2022/03/08 05:21:59;;;;;;;16.75;8.65;;;;;;;-1.36;68.05;101990.16;5009227;28;20025;-71
2022/03/08 05:24:24;;;;;;;19.55;8.57;;;;;;;-1.24;68.06;101984.69;4980646;28;20109;-71
2022/03/08 05:26:50;;;;;;;14.90;8.18;;;;;;;-1.15;67.93;101985.25;5002650;28;20399;-73
2022/03/08 05:29:15;;;;;;;16.35;7.95;;;;;;;-1.29;67.95;101984.00;5008819;28;20396;-70
2022/03/08 05:31:41;;;;;;;13.95;8.05;;;;;;;-1.26;68.03;101980.50;5007156;28;20038;-71
2022/03/08 05:34:07;;;;;;;14.25;8.15;;;;;;;-1.16;67.50;101988.69;4986492;28;20129;-70
2022/03/08 05:36:33;;;;;;;16.13;8.02;;;;;;;-1.19;67.42;101989.63;4982262;28;20022;-71
2022/03/08 05:38:58;;;;;;;19.15;9.02;;;;;;;-1.22;67.38;101980.38;4987808;28;20546;-71
2022/03/08 05:41:24;;;;;;;14.82;8.05;;;;;;;-1.19;67.30;101984.53;4987361;28;20069;-71
2022/03/08 05:43:49;;;;;;;16.88;9.25;;;;;;;-1.35;67.99;101975.75;5004750;28;20029;-73
2022/03/08 05:46:15;;;;;;;13.80;8.45;;;;;;;-1.30;67.94;101981.50;5005941;28;20495;-70
2022/03/08 05:48:40;;;;;;;14.60;7.43;;;;;;;-1.07;66.76;101983.31;4986950;28;20046;-71
2022/03/08 05:51:06;;;;;;;15.18;7.50;;;;;;;-1.05;66.49;101984.09;4998819;28;20065;-71
2022/03/08 05:53:32;;;;;;;18.63;8.10;;;;;;;-1.14;66.84;101982.66;5000526;28;20466;-72
2022/03/08 05:55:57;;;;;;;17.42;8.52;;;;;;;-1.06;66.62;101990.03;4988561;28;20021;-71
2022/03/08 05:58:23;;;;;;;23.27;8.73;;;;;;;-1.06;66.41;101984.94;4989625;28;20483;-71
2022/03/08 06:00:48;;;;;;;18.08;9.05;;;;;;;-1.06;66.20;101993.41;4988285;28;20117;-73
2022/03/08 06:03:14;;;;;;;12.85;8.07;;;;;;;-1.10;66.52;101988.50;4996327;28;20057;-72
2022/03/08 06:05:40;;;;;;;11.80;7.50;;;;;;;-1.06;66.63;101997.69;4994015;28;20064;-71
2022/03/08 06:08:05;;;;;;;15.50;8.10;;;;;;;-1.04;67.17;101995.91;4997590;28;20100;-70
2022/03/08 06:10:34;;;;;;;13.80;7.57;;;;;;;-1.05;66.71;101999.34;5003504;28;20034;-71
2022/03/08 06:12:59;;;;;;;15.57;9.27;;;;;;;-1.01;66.85;101996.66;5003567;28;20018;-70
2022/03/08 06:15:25;;;;;;;16.33;7.97;;;;;;;-1.00;67.24;102000.88;4991512;28;20711;-71
2022/03/08 06:17:51;;;;;;;17.23;7.35;;;;;;;-0.99;67.42;101996.59;5002478;28;20034;-71
2022/03/08 06:20:16;;;;;;;17.83;8.68;;;;;;;-0.85;66.07;101993.56;5003746;28;20545;-70
2022/03/08 06:22:42;;;;;;;14.13;7.57;;;;;;;-0.99;66.65;101991.50;5012785;28;20030;-72
2022/03/08 06:25:08;;;;;;;17.98;7.82;;;;;;;-0.89;65.44;101981.84;4993285;28;20065;-71
2022/03/08 06:27:34;;;;;;;15.27;7.88;;;;;;;-0.68;64.04;101985.34;4992003;28;20149;-71
2022/03/08 06:29:59;;;;;;;16.02;7.43;;;;;;;-0.61;63.77;101989.34;5014363;28;20501;-71
2022/03/08 06:32:25;;;;;;;15.55;8.18;;;;;;;-0.64;64.58;101990.28;5006713;28;20472;-73
2022/03/08 06:34:51;;;;;;;17.10;8.38;;;;;;;-0.64;64.13;101989.44;5008056;28;20037;-71
2022/03/08 06:37:17;;;;;;;14.77;7.70;;;;;;;-0.55;63.76;101988.28;4985386;28;20034;-71
2022/03/08 06:39:42;;;;;;;19.30;7.38;;;;;;;-0.49;63.20;101986.38;4982302;28;20064;-71
2022/03/08 06:42:08;;;;;;;13.02;7.30;;;;;;;-0.36;62.96;101991.00;4992745;28;20033;-71
2022/03/08 06:44:34;;;;;;;16.27;8.05;;;;;;;-0.40;62.32;101995.38;5003951;28;20050;-72
2022/03/08 06:46:59;;;;;;;20.70;7.60;;;;;;;-0.23;61.75;101995.59;5008201;28;20109;-72
2022/03/08 06:49:25;;;;;;;15.73;7.75;;;;;;;-0.11;61.82;102001.97;5010335;28;20038;-71
2022/03/08 06:51:50;;;;;;;14.52;7.35;;;;;;;-0.01;60.83;101993.06;4977749;28;20045;-71
2022/03/08 06:54:16;;;;;;;22.70;7.95;;;;;;;-0.14;61.14;101996.16;5008504;28;20033;-72
2022/03/08 06:56:41;;;;;;;13.30;7.35;;;;;;;0.09;60.51;101987.59;5000909;28;20609;-72
2022/03/08 06:59:07;;;;;;;12.40;7.47;;;;;;;0.11;60.30;101989.19;5008728;28;21821;-71
2022/03/08 07:01:33;;;;;;;16.08;8.48;;;;;;;0.27;60.32;101993.72;5005806;28;20107;-72
2022/03/08 07:03:58;;;;;;;14.30;7.13;;;;;;;0.42;59.65;101994.84;4969863;28;20041;-72
2022/03/08 07:06:24;;;;;;;14.35;7.65;;;;;;;0.53;59.52;101988.41;5007149;28;20073;-73
2022/03/08 07:08:50;;;;;;;14.10;7.82;;;;;;;0.93;58.09;101978.28;5008696;28;20044;-74
2022/03/08 07:11:16;;;;;;;15.48;7.43;;;;;;;1.34;56.51;101983.34;4990959;28;21420;-72
2022/03/08 07:13:42;;;;;;;14.85;7.57;;;;;;;1.61;55.68;101985.56;4986100;28;20120;-72
2022/03/08 07:16:08;;;;;;;13.63;7.88;;;;;;;1.99;54.59;101972.75;5006201;28;20101;-72
2022/03/08 07:18:33;;;;;;;15.05;7.50;;;;;;;2.17;53.77;101974.47;5010605;28;20510;-71
2022/03/08 07:21:00;;;;;;;12.13;6.97;;;;;;;2.57;53.01;101980.22;4990699;28;20022;-72
2022/03/08 07:23:26;;;;;;;16.02;7.28;;;;;;;2.67;52.15;101978.00;4987391;28;20120;-71
2022/03/08 07:25:51;;;;;;;13.63;6.70;;;;;;;2.78;51.36;101975.75;4984786;28;20056;-71
2022/03/08 07:28:17;;;;;;;12.93;6.95;;;;;;;2.98;50.64;101985.00;4989446;28;20041;-71
2022/03/08 07:30:42;;;;;;;12.57;6.65;;;;;;;3.44;50.32;101981.81;4992610;28;20032;-72
2022/03/08 07:33:08;;;;;;;13.95;6.22;;;;;;;3.61;49.01;101986.03;5004828;28;20084;-72
2022/03/08 07:35:33;;;;;;;10.38;6.20;;;;;;;3.69;48.51;101976.19;5009043;28;20027;-71
2022/03/08 07:37:59;;;;;;;12.40;6.47;;;;;;;3.82;47.17;101978.91;5010401;28;20512;-71
2022/03/08 07:40:24;;;;;;;10.68;6.57;;;;;;;4.15;47.14;101983.13;5004636;28;20033;-72
2022/03/08 07:42:50;;;;;;;14.00;6.18;;;;;;;3.94;47.35;101990.25;4979345;28;20212;-72
2022/03/08 07:45:15;;;;;;;10.82;6.55;;;;;;;3.91;46.32;101983.56;4998669;28;20040;-72
2022/03/08 07:47:41;;;;;;;10.32;5.35;;;;;;;4.09;45.58;101984.31;4996927;28;20029;-72
2022/03/08 07:50:07;;;;;;;13.27;6.82;;;;;;;4.46;45.74;101987.34;5007816;28;20601;-72
2022/03/08 07:52:33;;;;;;;12.35;6.38;;;;;;;4.38;45.66;101979.28;4986995;28;20038;-72
2022/03/08 07:54:58;;;;;;;11.05;5.65;;;;;;;4.68;45.61;101977.50;5004649;28;20044;-72
2022/03/08 07:57:24;;;;;;;11.80;5.95;;;;;;;5.03;44.30;101987.47;4989713;28;20030;-72
2022/03/08 07:59:49;;;;;;;11.95;6.60;;;;;;;5.09;43.82;101996.56;4989786;28;20026;-72
2022/03/08 08:02:15;;;;;;;14.05;6.28;;;;;;;5.07;43.67;101978.66;5004879;28;20072;-72
2022/03/08 08:04:41;;;;;;;8.93;5.05;;;;;;;5.04;44.11;101988.28;5006632;28;20029;-74
2022/03/08 08:07:06;;;;;;;12.82;5.60;;;;;;;4.98;43.88;101981.78;5003680;28;20057;-76
2022/03/08 08:09:33;;;;;;;11.93;5.72;;;;;;;5.39;43.71;101981.03;5007407;28;20030;-72
2022/03/08 08:11:59;;;;;;;16.70;6.07;;;;;;;5.06;44.00;101996.75;5006873;28;20403;-72
2022/03/08 08:14:24;;;;;;;8.90;5.60;;;;;;;5.21;42.92;101985.53;5008379;28;20481;-72
2022/03/08 08:16:50;;;;;;;10.32;5.85;;;;;;;5.48;42.70;101987.34;4990687;28;20037;-72
2022/03/08 08:19:16;;;;;;;13.27;5.57;;;;;;;5.26;43.23;101996.38;4984312;28;20037;-72
2022/03/08 08:21:43;;;;;;;17.38;5.63;;;;;;;5.31;43.43;101998.66;5007005;28;20034;-73
2022/03/08 08:24:08;;;;;;;10.00;6.15;;;;;;;5.17;43.73;102006.41;5003430;28;20034;-72
2022/03/08 08:26:34;;;;;;;9.15;5.80;;;;;;;5.52;43.40;102001.72;5005411;28;20025;-72
2022/03/08 08:29:00;;;;;;;12.55;6.32;;;;;;;5.48;43.39;102000.22;4994031;28;20116;-72
2022/03/08 08:31:28;;;;;;;10.32;5.75;;;;;;;5.73;42.94;102006.47;5029819;23;20036;-69
2022/03/08 08:33:55;;;;;;;17.20;6.40;;;;;;;5.68;42.47;102003.34;5030872;28;20103;-69
2022/03/08 08:36:20;;;;;;;14.02;5.82;;;;;;;5.76;43.03;101994.19;5026664;28;20025;-69
2022/03/08 08:38:46;;;;;;;9.52;5.65;;;;;;;6.23;42.43;101998.16;5028139;28;20033;-69
2022/03/08 08:41:12;;;;;;;11.25;6.20;;;;;;;5.72;42.88;102002.22;5026615;28;20036;-69
2022/03/08 08:43:37;;;;;;;13.95;6.25;;;;;;;6.29;42.56;101990.94;5011454;28;20580;-70
2022/03/08 08:46:03;;;;;;;10.75;6.13;;;;;;;6.19;41.97;101986.38;5028873;28;20029;-69
2022/03/08 08:48:29;;;;;;;10.95;6.43;;;;;;;6.83;41.59;101994.22;5033966;28;20072;-69
2022/03/08 08:50:55;;;;;;;12.68;6.47;;;;;;;6.54;41.56;101991.00;5011823;28;20026;-69
2022/03/08 08:53:22;;;;;;;9.35;5.82;;;;;;;7.08;40.79;101984.84;5028194;28;20029;-69
2022/03/08 08:55:48;;;;;;;10.88;6.32;;;;;;;6.97;41.19;101985.59;4994162;28;20013;-69
2022/03/08 08:58:14;;;;;;;16.17;6.70;;;;;;;6.85;41.21;101977.84;5009778;28;20413;-69
2022/03/08 09:00:40;;;;;;;17.67;6.72;;;;;;;6.93;40.76;101980.72;5029949;28;20037;-69
2022/03/08 09:03:09;;;;;;;13.20;6.18;;;;;;;6.98;40.65;101970.94;5033996;28;20415;-70
2022/03/08 09:05:35;;;;;;;12.38;6.30;;;;;;;6.71;40.50;101973.63;5027660;28;20045;-69
2022/03/08 09:08:00;;;;;;;10.25;5.53;;;;;;;6.90;40.16;101968.88;5031417;28;20041;-69
2022/03/08 09:10:26;;;;;;;13.63;6.20;;;;;;;7.16;40.28;101968.88;5025887;28;20025;-69
2022/03/08 09:12:51;;;;;;;13.25;6.40;;;;;;;6.32;40.58;101965.81;5032286;28;20029;-69
2022/03/08 09:15:18;;;;;;;12.82;5.45;;;;;;;6.74;40.22;101965.66;5007387;28;20030;-68
2022/03/08 09:17:45;;;;;;;10.32;5.93;;;;;;;6.59;40.36;101957.19;5017358;28;20034;-69
2022/03/08 09:20:11;;;;;;;14.75;6.13;;;;;;;6.49;40.84;101948.44;5030661;28;20029;-69
2022/03/08 09:22:37;;;;;;;11.00;5.88;;;;;;;6.64;41.23;101947.41;5006042;28;20040;-69
2022/03/08 09:25:03;;;;;;;10.00;5.65;;;;;;;6.63;41.13;101956.09;5005114;28;20026;-68
2022/03/08 09:27:30;;;;;;;11.40;5.60;;;;;;;7.04;40.55;101959.38;5023986;28;20068;-69
2022/03/08 09:29:56;;;;;;;9.52;5.90;;;;;;;6.86;40.00;101951.97;5006504;28;20051;-69
2022/03/08 09:32:22;;;;;;;9.48;5.72;;;;;;;6.83;40.14;101955.56;5025009;28;20036;-69
2022/03/08 09:34:48;;;;;;;10.90;5.45;;;;;;;6.77;40.10;101939.69;5008888;28;20466;-68
2022/03/08 09:37:14;;;;;;;11.63;5.40;;;;;;;6.61;40.15;101961.34;5025062;28;20034;-69
2022/03/08 09:39:39;;;;;;;8.35;5.57;;;;;;;6.51;40.57;101955.13;5027508;28;20123;-69
2022/03/08 09:42:05;;;;;;;18.17;5.85;;;;;;;6.50;40.54;101955.22;5008627;28;20487;-69
2022/03/08 09:44:31;;;;;;;15.10;5.75;;;;;;;6.24;40.43;101953.44;5023412;28;20029;-67
2022/03/08 09:46:56;;;;;;;16.08;6.65;;;;;;;6.24;40.92;101945.69;5025768;28;20061;-69
2022/03/08 09:49:22;;;;;;;8.35;5.18;;;;;;;6.39;41.16;101935.34;5015237;28;20030;-69
2022/03/08 09:51:50;;;;;;;15.13;5.70;;;;;;;6.40;40.66;101934.38;5028452;28;20518;-68
2022/03/08 09:54:15;;;;;;;9.73;5.20;;;;;;;6.53;40.42;101939.56;5015663;28;20568;-69
2022/03/08 09:56:41;;;;;;;11.23;5.50;;;;;;;6.57;40.52;101935.84;5025184;28;20030;-68
2022/03/08 09:59:06;;;;;;;12.80;5.20;;;;;;;6.79;40.39;101936.06;5028078;28;20095;-69
2022/03/08 10:01:32;;;;;;;12.90;4.75;;;;;;;6.75;39.27;101938.97;5012134;28;20049;-68
2022/03/08 10:03:57;;;;;;;18.05;7.13;;;;;;;6.67;39.45;101931.75;5011406;28;20040;-68
2022/03/08 10:06:37;;;;;;;14.57;7.05;;;;;;;6.46;39.35;101935.75;5009963;28;20923;-69
2022/03/08 10:09:13;;;;;;;13.00;5.13;;;;;;;6.62;39.59;101941.53;5015335;28;20036;-69
2022/03/08 10:11:39;;;;;;;13.48;5.20;;;;;;;6.59;38.96;101934.84;5028416;28;20043;-69
2022/03/08 10:14:04;;;;;;;14.30;5.00;;;;;;;6.64;38.86;101937.09;4999683;28;20033;-69
2022/03/08 10:16:41;;;;;;;7.50;4.60;;;;;;;6.64;38.47;101919.06;4993616;28;20501;-68
2022/03/08 10:19:09;;;;;;;15.80;4.72;;;;;;;6.70;38.96;101921.22;5040584;28;20038;-69
2022/03/08 10:21:37;;;;;;;11.23;5.10;;;;;;;6.74;38.95;101921.84;5028395;28;20048;-69
2022/03/08 10:24:15;;;;;;;11.48;4.88;;;;;;;6.93;38.48;101916.25;5033389;28;20033;-69
2022/03/08 10:26:49;;;;;;;7.35;4.38;;;;;;;7.12;38.96;101913.22;5008442;28;20040;-69
2022/03/08 10:29:33;;;;;;;8.90;5.00;;;;;;;7.10;38.39;101915.09;5022684;28;20053;-69
2022/03/08 10:32:10;;;;;;;10.00;5.03;;;;;;;7.03;38.79;101906.97;5015173;28;20037;-69
2022/03/08 10:34:38;;;;;;;22.95;4.93;;;;;;;6.99;38.67;101911.50;5025915;28;20034;-69
2022/03/08 10:37:14;;;;;;;8.25;4.55;;;;;;;7.05;38.87;101914.59;5009763;28;20635;-68
2022/03/08 10:40:10;;;;;;;11.57;5.20;;;;;;;7.02;38.50;101906.13;5012238;28;20056;-69
2022/03/08 10:42:39;;;;;;;10.65;4.78;;;;;;;7.11;38.57;101903.84;5021966;28;20053;-69
2022/03/08 10:45:14;;;;;;;10.20;5.20;;;;;;;7.16;38.43;101901.78;5027682;28;20029;-69
2022/03/08 10:47:42;;;;;;;8.52;4.78;;;;;;;7.30;37.85;101900.81;5025385;28;20380;-69
2022/03/08 10:50:14;;;;;;;8.20;4.28;;;;;;;7.62;38.29;101915.78;5027162;28;20076;-69
2022/03/08 10:52:42;;;;;;;9.63;5.18;;;;;;;7.39;37.92;101897.59;5025071;28;20052;-69
2022/03/08 10:55:16;;;;;;;6.63;4.43;;;;;;;7.65;39.38;101890.59;5011448;28;20045;-69
2022/03/08 10:57:45;;;;;;;10.23;5.20;;;;;;;7.92;37.87;101890.31;5025926;28;20414;-69
2022/03/08 11:00:13;;;;;;;8.35;4.38;;;;;;;7.94;37.49;101885.88;5027297;28;20033;-69
2022/03/08 11:03:05;;;;;;;10.35;4.95;;;;;;;7.91;37.66;101875.78;5027662;28;20042;-69
2022/03/08 11:05:45;;;;;;;7.47;4.28;;;;;;;7.88;37.25;101880.34;5026514;28;20022;-68
2022/03/08 11:08:11;;;;;;;8.90;4.88;;;;;;;7.79;36.36;101869.72;5013760;28;20033;-69
2022/03/08 11:10:38;;;;;;;7.38;4.82;;;;;;;7.76;36.69;101876.88;5026759;28;20041;-70
2022/03/08 11:13:05;;;;;;;11.85;5.13;;;;;;;7.85;36.39;101868.47;5012990;28;20167;-69
2022/03/08 11:15:32;;;;;;;13.40;5.82;;;;;;;7.83;36.17;101875.50;5026221;28;20033;-69
2022/03/08 11:17:59;;;;;;;13.85;5.53;;;;;;;7.75;37.49;101862.34;5023501;28;20407;-69